sensor_id;sensor_type;location;lat;lon;timestamp;temperature;humidity
79026;DHT22;68425;44.716;37.756;2023-04-06T00:00:30;28.28;36.36
79026;DHT22;68425;44.716;37.756;2023-04-06T00:01:33;28.27;36.25
79026;DHT22;68425;44.716;37.756;2023-04-06T00:02:36;28.26;36.28
79026;DHT22;68425;44.716;37.756;2023-04-06T00:03:37;28.23;36.27
79026;DHT22;68425;44.716;37.756;2023-04-06T00:04:38;28.20;36.39
79026;DHT22;68425;44.716;37.756;2023-04-06T00:05:40;28.19;36.48
79026;DHT22;68425;44.716;37.756;2023-04-06T00:06:42;28.17;36.56
79026;DHT22;68425;44.716;37.756;2023-04-06T00:07:43;28.18;36.50
79026;DHT22;68425;44.716;37.756;2023-04-06T00:08:44;28.19;36.41
79026;DHT22;68425;44.716;37.756;2023-04-06T00:09:46;28.20;36.35
79026;DHT22;68425;44.716;37.756;2023-04-06T00:10:47;28.21;36.35
79026;DHT22;68425;44.716;37.756;2023-04-06T00:11:48;28.21;36.34
79026;DHT22;68425;44.716;37.756;2023-04-06T00:12:50;28.21;36.35
79026;DHT22;68425;44.716;37.756;2023-04-06T00:13:51;28.18;36.35
79026;DHT22;68425;44.716;37.756;2023-04-06T00:14:53;28.18;36.37
79026;DHT22;68425;44.716;37.756;2023-04-06T00:15:54;28.19;36.38
79026;DHT22;68425;44.716;37.756;2023-04-06T00:16:57;28.19;36.36
79026;DHT22;68425;44.716;37.756;2023-04-06T00:17:59;28.19;36.36
79026;DHT22;68425;44.716;37.756;2023-04-06T00:19:00;28.19;36.36
79026;DHT22;68425;44.716;37.756;2023-04-06T00:20:02;28.20;36.35
79026;DHT22;68425;44.716;37.756;2023-04-06T00:21:04;28.21;36.34
79026;DHT22;68425;44.716;37.756;2023-04-06T00:22:05;28.19;36.34
79026;DHT22;68425;44.716;37.756;2023-04-06T00:23:06;28.20;36.34
79026;DHT22;68425;44.716;37.756;2023-04-06T00:24:08;28.19;36.33
79026;DHT22;68425;44.716;37.756;2023-04-06T00:25:09;28.20;36.33
79026;DHT22;68425;44.716;37.756;2023-04-06T00:26:12;28.19;36.34
79026;DHT22;68425;44.716;37.756;2023-04-06T00:27:17;28.19;36.36
79026;DHT22;68425;44.716;37.756;2023-04-06T00:28:18;28.19;36.36
79026;DHT22;68425;44.716;37.756;2023-04-06T00:29:26;28.17;36.38
79026;DHT22;68425;44.716;37.756;2023-04-06T00:30:27;28.17;36.40
79026;DHT22;68425;44.716;37.756;2023-04-06T00:31:28;28.17;36.43
79026;DHT22;68425;44.716;37.756;2023-04-06T00:32:30;28.18;36.46
79026;DHT22;68425;44.716;37.756;2023-04-06T00:33:32;28.18;36.51
79026;DHT22;68425;44.716;37.756;2023-04-06T00:34:33;28.18;36.45
79026;DHT22;68425;44.716;37.756;2023-04-06T00:35:35;28.20;36.40
79026;DHT22;68425;44.716;37.756;2023-04-06T00:36:36;28.19;36.35
79026;DHT22;68425;44.716;37.756;2023-04-06T00:37:37;28.19;36.34
79026;DHT22;68425;44.716;37.756;2023-04-06T00:38:39;28.19;36.30
79026;DHT22;68425;44.716;37.756;2023-04-06T00:39:40;28.19;36.26
79026;DHT22;68425;44.716;37.756;2023-04-06T00:40:43;28.19;36.28
79026;DHT22;68425;44.716;37.756;2023-04-06T00:41:48;28.18;36.30
79026;DHT22;68425;44.716;37.756;2023-04-06T00:42:51;28.18;36.27
79026;DHT22;68425;44.716;37.756;2023-04-06T00:43:53;28.17;36.27
79026;DHT22;68425;44.716;37.756;2023-04-06T00:44:57;28.17;36.27
79026;DHT22;68425;44.716;37.756;2023-04-06T00:45:58;28.20;36.24
79026;DHT22;68425;44.716;37.756;2023-04-06T00:47:00;28.19;36.23
79026;DHT22;68425;44.716;37.756;2023-04-06T00:48:01;28.18;36.22
79026;DHT22;68425;44.716;37.756;2023-04-06T00:49:03;28.18;36.26
79026;DHT22;68425;44.716;37.756;2023-04-06T00:50:05;28.18;36.24
79026;DHT22;68425;44.716;37.756;2023-04-06T00:51:06;28.16;36.24
79026;DHT22;68425;44.716;37.756;2023-04-06T00:52:08;28.16;36.24
79026;DHT22;68425;44.716;37.756;2023-04-06T00:53:09;28.18;36.23
79026;DHT22;68425;44.716;37.756;2023-04-06T00:54:11;28.16;36.24
79026;DHT22;68425;44.716;37.756;2023-04-06T00:55:12;28.17;36.24
79026;DHT22;68425;44.716;37.756;2023-04-06T00:56:16;28.18;36.18
79026;DHT22;68425;44.716;37.756;2023-04-06T00:57:27;28.18;36.12
79026;DHT22;68425;44.716;37.756;2023-04-06T00:58:30;28.20;36.13
79026;DHT22;68425;44.716;37.756;2023-04-06T00:59:39;28.20;36.13
79026;DHT22;68425;44.716;37.756;2023-04-06T01:00:43;28.20;36.11
79026;DHT22;68425;44.716;37.756;2023-04-06T01:01:50;28.20;36.10
79026;DHT22;68425;44.716;37.756;2023-04-06T01:03:05;28.21;36.02
79026;DHT22;68425;44.716;37.756;2023-04-06T01:04:13;28.21;36.02
79026;DHT22;68425;44.716;37.756;2023-04-06T01:05:16;28.21;36.01
79026;DHT22;68425;44.716;37.756;2023-04-06T01:06:25;28.23;35.98
79026;DHT22;68425;44.716;37.756;2023-04-06T01:07:32;28.21;35.99
79026;DHT22;68425;44.716;37.756;2023-04-06T01:08:45;28.20;36.00
79026;DHT22;68425;44.716;37.756;2023-04-06T01:09:55;28.20;35.99
79026;DHT22;68425;44.716;37.756;2023-04-06T01:11:00;28.20;35.98
79026;DHT22;68425;44.716;37.756;2023-04-06T01:12:03;28.24;35.92
79026;DHT22;68425;44.716;37.756;2023-04-06T01:13:06;28.27;35.82
79026;DHT22;68425;44.716;37.756;2023-04-06T01:14:35;28.28;35.79
79026;DHT22;68425;44.716;37.756;2023-04-06T01:15:37;28.26;35.83
79026;DHT22;68425;44.716;37.756;2023-04-06T01:16:42;28.23;35.91
79026;DHT22;68425;44.716;37.756;2023-04-06T01:17:49;28.19;35.97
79026;DHT22;68425;44.716;37.756;2023-04-06T01:18:51;28.18;35.98
79026;DHT22;68425;44.716;37.756;2023-04-06T01:20:01;28.16;36.00
79026;DHT22;68425;44.716;37.756;2023-04-06T01:21:05;28.16;36.02
79026;DHT22;68425;44.716;37.756;2023-04-06T01:22:15;28.15;36.02
79026;DHT22;68425;44.716;37.756;2023-04-06T01:23:20;28.16;35.98
79026;DHT22;68425;44.716;37.756;2023-04-06T01:24:22;28.14;36.02
79026;DHT22;68425;44.716;37.756;2023-04-06T01:25:36;28.16;35.98
79026;DHT22;68425;44.716;37.756;2023-04-06T01:26:42;28.17;35.98
79026;DHT22;68425;44.716;37.756;2023-04-06T01:27:44;28.15;35.98
79026;DHT22;68425;44.716;37.756;2023-04-06T01:28:46;28.16;35.99
79026;DHT22;68425;44.716;37.756;2023-04-06T01:30:00;28.14;35.99
79026;DHT22;68425;44.716;37.756;2023-04-06T01:31:22;28.16;35.96
79026;DHT22;68425;44.716;37.756;2023-04-06T01:32:26;28.15;35.98
79026;DHT22;68425;44.716;37.756;2023-04-06T01:33:27;28.14;35.97
79026;DHT22;68425;44.716;37.756;2023-04-06T01:34:38;28.14;35.98
79026;DHT22;68425;44.716;37.756;2023-04-06T01:35:41;28.13;36.04
79026;DHT22;68425;44.716;37.756;2023-04-06T01:36:49;28.14;36.02
79026;DHT22;68425;44.716;37.756;2023-04-06T01:38:01;28.14;35.98
79026;DHT22;68425;44.716;37.756;2023-04-06T01:39:06;28.16;35.95
79026;DHT22;68425;44.716;37.756;2023-04-06T01:40:11;28.15;35.95
79026;DHT22;68425;44.716;37.756;2023-04-06T01:41:24;28.17;35.90
79026;DHT22;68425;44.716;37.756;2023-04-06T01:42:27;28.15;35.91
79026;DHT22;68425;44.716;37.756;2023-04-06T01:43:29;28.16;35.90
79026;DHT22;68425;44.716;37.756;2023-04-06T01:44:39;28.15;35.92
79026;DHT22;68425;44.716;37.756;2023-04-06T01:45:45;28.15;35.92
79026;DHT22;68425;44.716;37.756;2023-04-06T01:46:54;28.15;35.88
79026;DHT22;68425;44.716;37.756;2023-04-06T01:47:57;28.13;35.89
79026;DHT22;68425;44.716;37.756;2023-04-06T01:49:00;28.15;35.88
79026;DHT22;68425;44.716;37.756;2023-04-06T01:50:09;28.15;35.89
79026;DHT22;68425;44.716;37.756;2023-04-06T01:51:15;28.15;35.89
79026;DHT22;68425;44.716;37.756;2023-04-06T01:52:29;28.14;35.89
79026;DHT22;68425;44.716;37.756;2023-04-06T01:53:30;28.14;35.90
79026;DHT22;68425;44.716;37.756;2023-04-06T01:54:37;28.14;35.89
79026;DHT22;68425;44.716;37.756;2023-04-06T01:56:13;28.17;35.81
79026;DHT22;68425;44.716;37.756;2023-04-06T01:57:20;28.17;35.81
79026;DHT22;68425;44.716;37.756;2023-04-06T01:58:27;28.17;35.81
79026;DHT22;68425;44.716;37.756;2023-04-06T01:59:29;28.15;35.85
79026;DHT22;68425;44.716;37.756;2023-04-06T02:00:31;28.15;35.85
79026;DHT22;68425;44.716;37.756;2023-04-06T02:01:32;28.14;35.87
79026;DHT22;68425;44.716;37.756;2023-04-06T02:02:34;28.13;35.87
79026;DHT22;68425;44.716;37.756;2023-04-06T02:03:39;28.14;35.85
79026;DHT22;68425;44.716;37.756;2023-04-06T02:04:44;28.12;35.88
79026;DHT22;68425;44.716;37.756;2023-04-06T02:05:48;28.12;35.89
79026;DHT22;68425;44.716;37.756;2023-04-06T02:06:56;28.14;35.85
79026;DHT22;68425;44.716;37.756;2023-04-06T02:08:00;28.14;35.84
79026;DHT22;68425;44.716;37.756;2023-04-06T02:09:09;28.16;35.80
79026;DHT22;68425;44.716;37.756;2023-04-06T02:10:12;28.15;35.80
79026;DHT22;68425;44.716;37.756;2023-04-06T02:11:14;28.13;35.82
79026;DHT22;68425;44.716;37.756;2023-04-06T02:12:20;28.14;35.85
79026;DHT22;68425;44.716;37.756;2023-04-06T02:13:22;28.14;35.83
79026;DHT22;68425;44.716;37.756;2023-04-06T02:14:27;28.13;35.82
79026;DHT22;68425;44.716;37.756;2023-04-06T02:15:32;28.13;35.82
79026;DHT22;68425;44.716;37.756;2023-04-06T02:16:33;28.12;35.86
79026;DHT22;68425;44.716;37.756;2023-04-06T02:17:35;28.10;35.89
79026;DHT22;68425;44.716;37.756;2023-04-06T02:18:36;28.10;35.90
79026;DHT22;68425;44.716;37.756;2023-04-06T02:19:38;28.11;35.88
79026;DHT22;68425;44.716;37.756;2023-04-06T02:20:40;28.11;35.87
79026;DHT22;68425;44.716;37.756;2023-04-06T02:21:41;28.12;35.84
79026;DHT22;68425;44.716;37.756;2023-04-06T02:22:43;28.13;35.85
79026;DHT22;68425;44.716;37.756;2023-04-06T02:23:44;28.13;35.82
79026;DHT22;68425;44.716;37.756;2023-04-06T02:24:46;28.14;35.80
79026;DHT22;68425;44.716;37.756;2023-04-06T02:25:47;28.13;35.81
79026;DHT22;68425;44.716;37.756;2023-04-06T02:26:48;28.15;35.82
79026;DHT22;68425;44.716;37.756;2023-04-06T02:27:50;28.14;35.76
79026;DHT22;68425;44.716;37.756;2023-04-06T02:28:51;28.14;35.76
79026;DHT22;68425;44.716;37.756;2023-04-06T02:29:52;28.15;35.74
79026;DHT22;68425;44.716;37.756;2023-04-06T02:30:55;28.16;35.74
79026;DHT22;68425;44.716;37.756;2023-04-06T02:32:00;28.15;35.71
79026;DHT22;68425;44.716;37.756;2023-04-06T02:33:04;28.16;35.72
79026;DHT22;68425;44.716;37.756;2023-04-06T02:34:13;28.15;35.69
79026;DHT22;68425;44.716;37.756;2023-04-06T02:35:21;28.17;35.69
79026;DHT22;68425;44.716;37.756;2023-04-06T02:36:28;28.17;35.67
79026;DHT22;68425;44.716;37.756;2023-04-06T02:37:29;28.15;35.71
79026;DHT22;68425;44.716;37.756;2023-04-06T02:38:31;28.13;35.73
79026;DHT22;68425;44.716;37.756;2023-04-06T02:39:35;28.14;35.73
79026;DHT22;68425;44.716;37.756;2023-04-06T02:40:38;28.14;35.71
79026;DHT22;68425;44.716;37.756;2023-04-06T02:41:50;28.16;35.69
79026;DHT22;68425;44.716;37.756;2023-04-06T02:42:56;28.16;35.68
79026;DHT22;68425;44.716;37.756;2023-04-06T02:44:03;28.15;35.67
79026;DHT22;68425;44.716;37.756;2023-04-06T02:45:18;28.18;35.63
79026;DHT22;68425;44.716;37.756;2023-04-06T02:46:22;28.18;35.63
79026;DHT22;68425;44.716;37.756;2023-04-06T02:47:23;28.16;35.67
79026;DHT22;68425;44.716;37.756;2023-04-06T02:48:26;28.15;35.66
79026;DHT22;68425;44.716;37.756;2023-04-06T02:49:27;28.16;35.68
79026;DHT22;68425;44.716;37.756;2023-04-06T02:50:31;28.16;35.66
79026;DHT22;68425;44.716;37.756;2023-04-06T02:51:36;28.15;35.69
79026;DHT22;68425;44.716;37.756;2023-04-06T02:52:49;28.15;35.66
79026;DHT22;68425;44.716;37.756;2023-04-06T02:53:51;28.15;35.65
79026;DHT22;68425;44.716;37.756;2023-04-06T02:54:52;28.15;35.67
79026;DHT22;68425;44.716;37.756;2023-04-06T02:56:00;28.14;35.69
79026;DHT22;68425;44.716;37.756;2023-04-06T02:57:10;28.14;35.70
79026;DHT22;68425;44.716;37.756;2023-04-06T02:58:15;28.14;35.71
79026;DHT22;68425;44.716;37.756;2023-04-06T02:59:24;28.14;35.69
79026;DHT22;68425;44.716;37.756;2023-04-06T03:00:38;28.15;35.66
79026;DHT22;68425;44.716;37.756;2023-04-06T03:01:39;28.13;35.67
79026;DHT22;68425;44.716;37.756;2023-04-06T03:02:41;28.13;35.69
79026;DHT22;68425;44.716;37.756;2023-04-06T03:03:46;28.13;35.70
79026;DHT22;68425;44.716;37.756;2023-04-06T03:04:55;28.13;35.69
79026;DHT22;68425;44.716;37.756;2023-04-06T03:06:02;28.12;35.69
79026;DHT22;68425;44.716;37.756;2023-04-06T03:07:05;28.13;35.69
79026;DHT22;68425;44.716;37.756;2023-04-06T03:08:10;28.13;35.66
79026;DHT22;68425;44.716;37.756;2023-04-06T03:09:16;28.12;35.69
79026;DHT22;68425;44.716;37.756;2023-04-06T03:10:19;28.12;35.65
79026;DHT22;68425;44.716;37.756;2023-04-06T03:11:22;28.13;35.65
79026;DHT22;68425;44.716;37.756;2023-04-06T03:12:25;28.12;35.66
79026;DHT22;68425;44.716;37.756;2023-04-06T03:13:47;28.13;35.63
79026;DHT22;68425;44.716;37.756;2023-04-06T03:14:48;28.13;35.61
79026;DHT22;68425;44.716;37.756;2023-04-06T03:15:50;28.13;35.62
79026;DHT22;68425;44.716;37.756;2023-04-06T03:16:54;28.12;35.63
79026;DHT22;68425;44.716;37.756;2023-04-06T03:17:58;28.12;35.64
79026;DHT22;68425;44.716;37.756;2023-04-06T03:19:13;28.16;35.57
79026;DHT22;68425;44.716;37.756;2023-04-06T03:20:14;28.18;35.49
79026;DHT22;68425;44.716;37.756;2023-04-06T03:21:16;28.17;35.50
79026;DHT22;68425;44.716;37.756;2023-04-06T03:22:23;28.16;35.55
79026;DHT22;68425;44.716;37.756;2023-04-06T03:23:24;28.16;35.53
79026;DHT22;68425;44.716;37.756;2023-04-06T03:24:31;28.14;35.52
79026;DHT22;68425;44.716;37.756;2023-04-06T03:25:33;28.13;35.56
79026;DHT22;68425;44.716;37.756;2023-04-06T03:26:38;28.13;35.60
79026;DHT22;68425;44.716;37.756;2023-04-06T03:27:41;28.13;35.59
79026;DHT22;68425;44.716;37.756;2023-04-06T03:28:47;28.12;35.61
79026;DHT22;68425;44.716;37.756;2023-04-06T03:29:49;28.11;35.62
79026;DHT22;68425;44.716;37.756;2023-04-06T03:30:56;28.09;35.66
79026;DHT22;68425;44.716;37.756;2023-04-06T03:32:17;28.11;35.68
79026;DHT22;68425;44.716;37.756;2023-04-06T03:33:19;28.11;35.73
79026;DHT22;68425;44.716;37.756;2023-04-06T03:34:30;28.10;35.78
79026;DHT22;68425;44.716;37.756;2023-04-06T03:35:31;28.11;35.70
79026;DHT22;68425;44.716;37.756;2023-04-06T03:36:34;28.10;35.70
79026;DHT22;68425;44.716;37.756;2023-04-06T03:37:37;28.13;35.63
79026;DHT22;68425;44.716;37.756;2023-04-06T03:38:40;28.13;35.60
79026;DHT22;68425;44.716;37.756;2023-04-06T03:39:45;28.13;35.58
79026;DHT22;68425;44.716;37.756;2023-04-06T03:40:52;28.12;35.61
79026;DHT22;68425;44.716;37.756;2023-04-06T03:41:57;28.11;35.60
79026;DHT22;68425;44.716;37.756;2023-04-06T03:43:08;28.12;35.60
79026;DHT22;68425;44.716;37.756;2023-04-06T03:44:12;28.11;35.57
79026;DHT22;68425;44.716;37.756;2023-04-06T03:45:13;28.11;35.56
79026;DHT22;68425;44.716;37.756;2023-04-06T03:46:20;28.10;35.55
79026;DHT22;68425;44.716;37.756;2023-04-06T03:47:24;28.11;35.50
79026;DHT22;68425;44.716;37.756;2023-04-06T03:48:30;28.09;35.53
79026;DHT22;68425;44.716;37.756;2023-04-06T03:49:36;28.10;35.53
79026;DHT22;68425;44.716;37.756;2023-04-06T03:50:41;28.10;35.52
79026;DHT22;68425;44.716;37.756;2023-04-06T03:51:42;28.09;35.59
79026;DHT22;68425;44.716;37.756;2023-04-06T03:52:43;28.05;35.86
79026;DHT22;68425;44.716;37.756;2023-04-06T03:53:45;28.04;35.91
79026;DHT22;68425;44.716;37.756;2023-04-06T03:54:46;28.05;35.89
79026;DHT22;68425;44.716;37.756;2023-04-06T03:55:48;28.05;35.85
79026;DHT22;68425;44.716;37.756;2023-04-06T03:56:49;28.06;35.96
79026;DHT22;68425;44.716;37.756;2023-04-06T03:57:50;28.08;35.83
79026;DHT22;68425;44.716;37.756;2023-04-06T03:58:52;28.10;36.26
79026;DHT22;68425;44.716;37.756;2023-04-06T03:59:55;28.08;36.18
79026;DHT22;68425;44.716;37.756;2023-04-06T04:01:00;28.09;36.02
79026;DHT22;68425;44.716;37.756;2023-04-06T04:02:02;28.13;36.11
79026;DHT22;68425;44.716;37.756;2023-04-06T04:03:04;28.11;36.51
79026;DHT22;68425;44.716;37.756;2023-04-06T04:04:05;28.10;36.94
79026;DHT22;68425;44.716;37.756;2023-04-06T04:05:07;28.11;36.75
79026;DHT22;68425;44.716;37.756;2023-04-06T04:06:09;28.13;36.88
79026;DHT22;68425;44.716;37.756;2023-04-06T04:07:10;28.15;36.77
79026;DHT22;68425;44.716;37.756;2023-04-06T04:08:11;28.17;36.56
79026;DHT22;68425;44.716;37.756;2023-04-06T04:09:13;28.19;36.66
79026;DHT22;68425;44.716;37.756;2023-04-06T04:10:14;28.20;36.68
79026;DHT22;68425;44.716;37.756;2023-04-06T04:11:16;28.21;36.50
79026;DHT22;68425;44.716;37.756;2023-04-06T04:12:18;28.24;36.46
79026;DHT22;68425;44.716;37.756;2023-04-06T04:13:19;28.27;36.60
79026;DHT22;68425;44.716;37.756;2023-04-06T04:14:23;28.28;36.60
79026;DHT22;68425;44.716;37.756;2023-04-06T04:15:25;28.29;36.77
79026;DHT22;68425;44.716;37.756;2023-04-06T04:16:26;28.29;36.72
79026;DHT22;68425;44.716;37.756;2023-04-06T04:17:28;28.30;36.62
79026;DHT22;68425;44.716;37.756;2023-04-06T04:18:29;28.29;36.51
79026;DHT22;68425;44.716;37.756;2023-04-06T04:19:30;28.27;36.66
79026;DHT22;68425;44.716;37.756;2023-04-06T04:20:32;28.29;36.91
79026;DHT22;68425;44.716;37.756;2023-04-06T04:21:42;28.29;36.87
79026;DHT22;68425;44.716;37.756;2023-04-06T04:22:45;28.32;36.54
79026;DHT22;68425;44.716;37.756;2023-04-06T04:23:46;28.32;36.73
79026;DHT22;68425;44.716;37.756;2023-04-06T04:24:48;28.33;36.54
79026;DHT22;68425;44.716;37.756;2023-04-06T04:25:49;28.31;36.40
79026;DHT22;68425;44.716;37.756;2023-04-06T04:26:52;28.32;36.23
79026;DHT22;68425;44.716;37.756;2023-04-06T04:27:54;28.34;36.05
79026;DHT22;68425;44.716;37.756;2023-04-06T04:28:57;28.35;35.89
79026;DHT22;68425;44.716;37.756;2023-04-06T04:29:58;28.33;35.73
79026;DHT22;68425;44.716;37.756;2023-04-06T04:30:59;28.33;35.71
79026;DHT22;68425;44.716;37.756;2023-04-06T04:32:04;28.34;35.76
79026;DHT22;68425;44.716;37.756;2023-04-06T04:33:05;28.35;35.79
79026;DHT22;68425;44.716;37.756;2023-04-06T04:34:07;28.33;35.84
79026;DHT22;68425;44.716;37.756;2023-04-06T04:35:09;28.33;35.85
79026;DHT22;68425;44.716;37.756;2023-04-06T04:36:16;28.34;35.87
79026;DHT22;68425;44.716;37.756;2023-04-06T04:37:18;28.33;35.87
79026;DHT22;68425;44.716;37.756;2023-04-06T04:38:26;28.34;35.84
79026;DHT22;68425;44.716;37.756;2023-04-06T04:39:30;28.34;35.88
79026;DHT22;68425;44.716;37.756;2023-04-06T04:40:37;28.34;35.82
79026;DHT22;68425;44.716;37.756;2023-04-06T04:41:42;28.34;35.88
79026;DHT22;68425;44.716;37.756;2023-04-06T04:42:46;28.32;35.91
79026;DHT22;68425;44.716;37.756;2023-04-06T04:43:55;28.31;35.85
79026;DHT22;68425;44.716;37.756;2023-04-06T04:44:59;28.30;35.89
79026;DHT22;68425;44.716;37.756;2023-04-06T04:46:27;28.30;35.88
79026;DHT22;68425;44.716;37.756;2023-04-06T04:47:29;28.28;35.93
79026;DHT22;68425;44.716;37.756;2023-04-06T04:48:31;28.28;35.98
79026;DHT22;68425;44.716;37.756;2023-04-06T04:49:36;28.27;35.95
79026;DHT22;68425;44.716;37.756;2023-04-06T04:50:38;28.25;36.01
79026;DHT22;68425;44.716;37.756;2023-04-06T04:51:40;28.25;35.98
79026;DHT22;68425;44.716;37.756;2023-04-06T04:52:47;28.24;36.01
79026;DHT22;68425;44.716;37.756;2023-04-06T04:53:52;28.23;36.02
79026;DHT22;68425;44.716;37.756;2023-04-06T04:54:58;28.21;36.01
79026;DHT22;68425;44.716;37.756;2023-04-06T04:56:03;28.20;35.98
79026;DHT22;68425;44.716;37.756;2023-04-06T04:57:04;28.19;35.98
79026;DHT22;68425;44.716;37.756;2023-04-06T04:58:17;28.18;36.03
79026;DHT22;68425;44.716;37.756;2023-04-06T04:59:28;28.18;36.03
79026;DHT22;68425;44.716;37.756;2023-04-06T05:00:36;28.18;36.02
79026;DHT22;68425;44.716;37.756;2023-04-06T05:01:37;28.16;36.04
79026;DHT22;68425;44.716;37.756;2023-04-06T05:02:38;28.14;36.04
79026;DHT22;68425;44.716;37.756;2023-04-06T05:03:50;28.14;36.05
79026;DHT22;68425;44.716;37.756;2023-04-06T05:04:52;28.13;36.05
79026;DHT22;68425;44.716;37.756;2023-04-06T05:05:58;28.14;36.05
79026;DHT22;68425;44.716;37.756;2023-04-06T05:07:07;28.14;36.05
79026;DHT22;68425;44.716;37.756;2023-04-06T05:08:10;28.13;36.02
79026;DHT22;68425;44.716;37.756;2023-04-06T05:09:22;28.13;36.00
79026;DHT22;68425;44.716;37.756;2023-04-06T05:10:24;28.12;36.04
79026;DHT22;68425;44.716;37.756;2023-04-06T05:11:30;28.11;36.07
79026;DHT22;68425;44.716;37.756;2023-04-06T05:12:35;28.11;36.05
79026;DHT22;68425;44.716;37.756;2023-04-06T05:13:45;28.09;36.09
79026;DHT22;68425;44.716;37.756;2023-04-06T05:14:51;28.06;36.06
79026;DHT22;68425;44.716;37.756;2023-04-06T05:15:54;28.06;36.09
79026;DHT22;68425;44.716;37.756;2023-04-06T05:17:00;28.06;36.11
79026;DHT22;68425;44.716;37.756;2023-04-06T05:18:01;28.06;36.07
79026;DHT22;68425;44.716;37.756;2023-04-06T05:19:07;28.08;36.05
79026;DHT22;68425;44.716;37.756;2023-04-06T05:20:15;28.08;36.05
79026;DHT22;68425;44.716;37.756;2023-04-06T05:21:22;28.05;36.07
79026;DHT22;68425;44.716;37.756;2023-04-06T05:22:34;28.04;36.15
79026;DHT22;68425;44.716;37.756;2023-04-06T05:23:40;28.02;36.13
79026;DHT22;68425;44.716;37.756;2023-04-06T05:24:41;28.03;36.17
79026;DHT22;68425;44.716;37.756;2023-04-06T05:25:43;28.01;36.14
79026;DHT22;68425;44.716;37.756;2023-04-06T05:26:52;28.02;36.14
79026;DHT22;68425;44.716;37.756;2023-04-06T05:27:58;28.00;36.18
79026;DHT22;68425;44.716;37.756;2023-04-06T05:29:09;28.00;36.21
79026;DHT22;68425;44.716;37.756;2023-04-06T05:30:13;27.99;36.21
79026;DHT22;68425;44.716;37.756;2023-04-06T05:31:20;28.00;36.21
79026;DHT22;68425;44.716;37.756;2023-04-06T05:32:24;27.99;36.27
79026;DHT22;68425;44.716;37.756;2023-04-06T05:33:27;27.98;36.17
79026;DHT22;68425;44.716;37.756;2023-04-06T05:34:37;27.98;36.23
79026;DHT22;68425;44.716;37.756;2023-04-06T05:35:39;27.97;36.23
79026;DHT22;68425;44.716;37.756;2023-04-06T05:36:45;27.97;36.27
79026;DHT22;68425;44.716;37.756;2023-04-06T05:37:52;27.97;36.30
79026;DHT22;68425;44.716;37.756;2023-04-06T05:38:58;27.97;36.19
79026;DHT22;68425;44.716;37.756;2023-04-06T05:40:19;27.98;36.30
79026;DHT22;68425;44.716;37.756;2023-04-06T05:41:20;27.96;36.27
79026;DHT22;68425;44.716;37.756;2023-04-06T05:42:22;27.95;36.32
79026;DHT22;68425;44.716;37.756;2023-04-06T05:43:30;27.95;36.39
79026;DHT22;68425;44.716;37.756;2023-04-06T05:44:33;27.94;36.42
79026;DHT22;68425;44.716;37.756;2023-04-06T05:45:45;27.93;36.34
79026;DHT22;68425;44.716;37.756;2023-04-06T05:46:47;27.90;36.27
79026;DHT22;68425;44.716;37.756;2023-04-06T05:47:51;27.90;36.32
79026;DHT22;68425;44.716;37.756;2023-04-06T05:49:02;27.89;36.47
79026;DHT22;68425;44.716;37.756;2023-04-06T05:50:07;27.88;36.47
79026;DHT22;68425;44.716;37.756;2023-04-06T05:51:12;27.89;36.41
79026;DHT22;68425;44.716;37.756;2023-04-06T05:52:19;27.88;36.45
79026;DHT22;68425;44.716;37.756;2023-04-06T05:53:23;27.86;36.39
79026;DHT22;68425;44.716;37.756;2023-04-06T05:54:30;27.85;36.39
79026;DHT22;68425;44.716;37.756;2023-04-06T05:55:35;27.85;36.50
79026;DHT22;68425;44.716;37.756;2023-04-06T05:56:45;27.85;36.56
79026;DHT22;68425;44.716;37.756;2023-04-06T05:57:47;27.88;36.40
79026;DHT22;68425;44.716;37.756;2023-04-06T05:58:51;27.87;36.55
79026;DHT22;68425;44.716;37.756;2023-04-06T05:59:59;27.86;36.43
79026;DHT22;68425;44.716;37.756;2023-04-06T06:01:13;27.84;36.32
79026;DHT22;68425;44.716;37.756;2023-04-06T06:02:20;27.85;36.53
79026;DHT22;68425;44.716;37.756;2023-04-06T06:03:24;27.83;36.60
79026;DHT22;68425;44.716;37.756;2023-04-06T06:04:30;27.83;36.64
79026;DHT22;68425;44.716;37.756;2023-04-06T06:05:31;27.81;36.75
79026;DHT22;68425;44.716;37.756;2023-04-06T06:06:39;27.80;36.76
79026;DHT22;68425;44.716;37.756;2023-04-06T06:07:48;27.82;36.76
79026;DHT22;68425;44.716;37.756;2023-04-06T06:08:50;27.80;36.71
79026;DHT22;68425;44.716;37.756;2023-04-06T06:09:52;27.80;36.63
79026;DHT22;68425;44.716;37.756;2023-04-06T06:10:59;27.81;36.66
79026;DHT22;68425;44.716;37.756;2023-04-06T06:12:01;27.80;36.70
79026;DHT22;68425;44.716;37.756;2023-04-06T06:13:04;27.78;36.72
79026;DHT22;68425;44.716;37.756;2023-04-06T06:14:05;27.76;36.69
79026;DHT22;68425;44.716;37.756;2023-04-06T06:15:10;27.79;36.68
79026;DHT22;68425;44.716;37.756;2023-04-06T06:16:18;27.79;36.82
79026;DHT22;68425;44.716;37.756;2023-04-06T06:17:21;27.79;36.63
79026;DHT22;68425;44.716;37.756;2023-04-06T06:18:23;27.79;36.66
79026;DHT22;68425;44.716;37.756;2023-04-06T06:19:27;27.78;36.64
79026;DHT22;68425;44.716;37.756;2023-04-06T06:20:32;27.78;36.77
79026;DHT22;68425;44.716;37.756;2023-04-06T06:21:37;27.79;36.94
79026;DHT22;68425;44.716;37.756;2023-04-06T06:22:40;27.76;36.73
79026;DHT22;68425;44.716;37.756;2023-04-06T06:23:45;27.75;36.88
79026;DHT22;68425;44.716;37.756;2023-04-06T06:24:51;27.75;36.76
79026;DHT22;68425;44.716;37.756;2023-04-06T06:25:54;27.80;36.75
79026;DHT22;68425;44.716;37.756;2023-04-06T06:26:58;27.78;36.72
79026;DHT22;68425;44.716;37.756;2023-04-06T06:28:02;27.78;36.79
79026;DHT22;68425;44.716;37.756;2023-04-06T06:29:06;27.76;36.83
79026;DHT22;68425;44.716;37.756;2023-04-06T06:30:10;27.75;36.86
79026;DHT22;68425;44.716;37.756;2023-04-06T06:31:14;27.74;36.78
79026;DHT22;68425;44.716;37.756;2023-04-06T06:32:18;27.73;36.81
79026;DHT22;68425;44.716;37.756;2023-04-06T06:33:23;27.74;36.81
79026;DHT22;68425;44.716;37.756;2023-04-06T06:34:27;27.73;36.79
79026;DHT22;68425;44.716;37.756;2023-04-06T06:35:31;27.72;36.77
79026;DHT22;68425;44.716;37.756;2023-04-06T06:36:35;27.72;36.72
79026;DHT22;68425;44.716;37.756;2023-04-06T06:37:39;27.71;36.88
79026;DHT22;68425;44.716;37.756;2023-04-06T06:38:42;27.71;36.85
79026;DHT22;68425;44.716;37.756;2023-04-06T06:39:43;27.71;36.85
79026;DHT22;68425;44.716;37.756;2023-04-06T06:40:46;27.69;36.95
79026;DHT22;68425;44.716;37.756;2023-04-06T06:41:47;27.70;36.82